sensor_id;sensor_type;location;lat;lon;timestamp;pressure;altitude;pressure_sealevel;temperature;humidity
54329;BME280;40710;51.120;13.136;2024-02-23T00:00:49;96653.38;;;14.67;55.16
54329;BME280;40710;51.120;13.136;2024-02-23T00:03:14;96640.38;;;15.04;54.47
54329;BME280;40710;51.120;13.136;2024-02-23T00:05:38;96614.75;;;14.81;54.58
54329;BME280;40710;51.120;13.136;2024-02-23T00:08:03;96622.78;;;14.96;54.77
54329;BME280;40710;51.120;13.136;2024-02-23T00:10:27;96617.59;;;14.80;54.97
54329;BME280;40710;51.120;13.136;2024-02-23T00:12:52;96619.53;;;14.63;55.25
54329;BME280;40710;51.120;13.136;2024-02-23T00:15:17;96619.88;;;14.83;54.28
54329;BME280;40710;51.120;13.136;2024-02-23T00:17:41;96633.47;;;14.40;54.99
54329;BME280;40710;51.120;13.136;2024-02-23T00:20:09;96645.72;;;14.41;55.05
54329;BME280;40710;51.120;13.136;2024-02-23T00:22:35;96626.38;;;14.41;54.84
54329;BME280;40710;51.120;13.136;2024-02-23T00:25:00;96630.53;;;14.35;54.66
54329;BME280;40710;51.120;13.136;2024-02-23T00:27:24;96618.38;;;14.57;54.25
54329;BME280;40710;51.120;13.136;2024-02-23T00:29:49;96613.78;;;14.51;54.31
54329;BME280;40710;51.120;13.136;2024-02-23T00:32:13;96606.47;;;14.53;54.16
54329;BME280;40710;51.120;13.136;2024-02-23T00:34:38;96604.38;;;14.48;54.05
54329;BME280;40710;51.120;13.136;2024-02-23T00:37:03;96614.66;;;14.98;53.37
54329;BME280;40710;51.120;13.136;2024-02-23T00:39:28;96596.50;;;14.40;54.03
54329;BME280;40710;51.120;13.136;2024-02-23T00:41:52;96606.66;;;14.51;54.04
54329;BME280;40710;51.120;13.136;2024-02-23T00:44:17;96619.97;;;14.35;53.94
54329;BME280;40710;51.120;13.136;2024-02-23T00:46:41;96609.56;;;14.33;53.95
54329;BME280;40710;51.120;13.136;2024-02-23T00:49:06;96607.13;;;14.63;53.50
54329;BME280;40710;51.120;13.136;2024-02-23T00:51:31;96635.16;;;14.41;53.71
54329;BME280;40710;51.120;13.136;2024-02-23T00:53:55;96618.88;;;14.52;53.45
54329;BME280;40710;51.120;13.136;2024-02-23T00:56:19;96618.75;;;14.77;52.88
54329;BME280;40710;51.120;13.136;2024-02-23T00:58:44;96675.69;;;14.09;53.92
54329;BME280;40710;51.120;13.136;2024-02-23T01:01:08;96661.78;;;14.23;54.05
54329;BME280;40710;51.120;13.136;2024-02-23T01:03:33;96669.78;;;14.86;52.80
54329;BME280;40710;51.120;13.136;2024-02-23T01:05:58;96669.19;;;14.36;53.38
54329;BME280;40710;51.120;13.136;2024-02-23T01:08:22;96656.66;;;14.22;54.09
54329;BME280;40710;51.120;13.136;2024-02-23T01:10:47;96662.84;;;14.45;53.19
54329;BME280;40710;51.120;13.136;2024-02-23T01:13:11;96675.38;;;14.60;53.01
54329;BME280;40710;51.120;13.136;2024-02-23T01:15:36;96683.56;;;14.25;53.44
54329;BME280;40710;51.120;13.136;2024-02-23T01:18:00;96691.06;;;14.53;52.81
54329;BME280;40710;51.120;13.136;2024-02-23T01:20:25;96706.16;;;14.36;53.16
54329;BME280;40710;51.120;13.136;2024-02-23T01:22:50;96716.06;;;14.34;53.30
54329;BME280;40710;51.120;13.136;2024-02-23T01:25:14;96709.53;;;14.05;53.89
54329;BME280;40710;51.120;13.136;2024-02-23T01:27:40;96730.59;;;14.30;53.01
54329;BME280;40710;51.120;13.136;2024-02-23T01:30:05;96764.38;;;13.87;53.50
54329;BME280;40710;51.120;13.136;2024-02-23T01:32:29;96778.53;;;14.18;52.70
54329;BME280;40710;51.120;13.136;2024-02-23T01:34:54;96772.06;;;14.29;51.88
54329;BME280;40710;51.120;13.136;2024-02-23T01:37:18;96772.16;;;14.61;51.67
54329;BME280;40710;51.120;13.136;2024-02-23T01:39:43;96784.94;;;14.32;51.28
54329;BME280;40710;51.120;13.136;2024-02-23T01:42:08;96798.84;;;14.10;52.09
54329;BME280;40710;51.120;13.136;2024-02-23T01:44:33;96801.75;;;14.40;51.61
54329;BME280;40710;51.120;13.136;2024-02-23T01:46:58;96793.78;;;14.64;50.92
54329;BME280;40710;51.120;13.136;2024-02-23T01:49:22;96808.50;;;14.50;51.14
54329;BME280;40710;51.120;13.136;2024-02-23T01:51:53;96803.91;;;14.36;51.72
54329;BME280;40710;51.120;13.136;2024-02-23T01:54:18;96792.81;;;14.57;51.25
54329;BME280;40710;51.120;13.136;2024-02-23T01:56:43;96797.34;;;14.07;51.85
54329;BME280;40710;51.120;13.136;2024-02-23T01:59:10;96797.34;;;13.74;52.40
54329;BME280;40710;51.120;13.136;2024-02-23T02:01:35;96809.31;;;14.67;51.44
54329;BME280;40710;51.120;13.136;2024-02-23T02:04:00;96826.41;;;13.99;51.88
54329;BME280;40710;51.120;13.136;2024-02-23T02:06:24;96822.78;;;14.08;51.81
54329;BME280;40710;51.120;13.136;2024-02-23T02:08:49;96820.88;;;14.66;50.45
54329;BME280;40710;51.120;13.136;2024-02-23T02:11:13;96818.56;;;14.55;50.75
54329;BME280;40710;51.120;13.136;2024-02-23T02:13:38;96838.41;;;14.59;50.65
54329;BME280;40710;51.120;13.136;2024-02-23T02:16:03;96841.06;;;14.26;51.09
54329;BME280;40710;51.120;13.136;2024-02-23T02:18:28;96857.06;;;14.49;51.36
54329;BME280;40710;51.120;13.136;2024-02-23T02:20:56;96861.19;;;13.70;52.45
54329;BME280;40710;51.120;13.136;2024-02-23T02:23:21;96868.97;;;13.88;51.93
54329;BME280;40710;51.120;13.136;2024-02-23T02:25:55;96869.63;;;13.90;52.15
54329;BME280;40710;51.120;13.136;2024-02-23T02:28:20;96871.94;;;13.85;52.69
54329;BME280;40710;51.120;13.136;2024-02-23T02:30:45;96881.53;;;13.94;52.34
54329;BME280;40710;51.120;13.136;2024-02-23T02:33:09;96877.53;;;14.47;51.02
54329;BME280;40710;51.120;13.136;2024-02-23T02:35:34;96907.09;;;13.85;52.21
54329;BME280;40710;51.120;13.136;2024-02-23T02:37:58;96919.13;;;13.88;51.94
54329;BME280;40710;51.120;13.136;2024-02-23T02:40:23;96926.63;;;13.23;53.01
54329;BME280;40710;51.120;13.136;2024-02-23T02:42:48;96921.63;;;14.06;51.94
54329;BME280;40710;51.120;13.136;2024-02-23T02:45:12;96922.09;;;13.85;51.98
54329;BME280;40710;51.120;13.136;2024-02-23T02:47:37;96938.94;;;13.41;52.90
54329;BME280;40710;51.120;13.136;2024-02-23T02:50:01;96930.34;;;13.90;52.17
54329;BME280;40710;51.120;13.136;2024-02-23T02:52:26;96932.16;;;13.73;52.12
54329;BME280;40710;51.120;13.136;2024-02-23T02:54:51;96937.19;;;13.23;52.17
54329;BME280;40710;51.120;13.136;2024-02-23T02:57:15;96957.31;;;13.24;49.83
54329;BME280;40710;51.120;13.136;2024-02-23T02:59:40;96928.19;;;13.00;45.86
54329;BME280;40710;51.120;13.136;2024-02-23T03:02:04;96946.75;;;12.90;45.21
54329;BME280;40710;51.120;13.136;2024-02-23T03:04:29;96955.53;;;12.99;45.17
54329;BME280;40710;51.120;13.136;2024-02-23T03:06:53;96950.59;;;12.52;45.68
54329;BME280;40710;51.120;13.136;2024-02-23T03:09:18;96948.19;;;12.58;45.11
54329;BME280;40710;51.120;13.136;2024-02-23T03:11:43;96957.50;;;12.71;45.27
54329;BME280;40710;51.120;13.136;2024-02-23T03:14:07;96945.47;;;13.29;44.49
54329;BME280;40710;51.120;13.136;2024-02-23T03:16:32;96959.03;;;12.81;44.80
54329;BME280;40710;51.120;13.136;2024-02-23T03:18:58;96974.03;;;12.37;45.36
54329;BME280;40710;51.120;13.136;2024-02-23T03:21:23;96987.94;;;12.47;44.87
54329;BME280;40710;51.120;13.136;2024-02-23T03:23:47;96998.69;;;12.72;44.80
54329;BME280;40710;51.120;13.136;2024-02-23T03:26:12;97012.34;;;12.49;44.92
54329;BME280;40710;51.120;13.136;2024-02-23T03:28:37;97012.25;;;12.59;45.18
54329;BME280;40710;51.120;13.136;2024-02-23T03:31:02;97042.41;;;12.10;45.45
54329;BME280;40710;51.120;13.136;2024-02-23T03:33:27;97026.19;;;12.51;45.09
54329;BME280;40710;51.120;13.136;2024-02-23T03:35:51;97025.50;;;12.31;45.31
54329;BME280;40710;51.120;13.136;2024-02-23T03:38:16;97033.78;;;12.54;45.00
54329;BME280;40710;51.120;13.136;2024-02-23T03:40:40;97064.78;;;12.42;45.09
54329;BME280;40710;51.120;13.136;2024-02-23T03:43:05;97064.22;;;12.03;45.40
54329;BME280;40710;51.120;13.136;2024-02-23T03:45:30;97066.28;;;12.27;45.11
54329;BME280;40710;51.120;13.136;2024-02-23T03:47:54;97071.78;;;12.34;44.55
54329;BME280;40710;51.120;13.136;2024-02-23T03:50:19;97112.28;;;12.05;45.53
54329;BME280;40710;51.120;13.136;2024-02-23T03:52:43;97095.16;;;12.19;45.01
54329;BME280;40710;51.120;13.136;2024-02-23T03:55:08;97090.88;;;12.36;46.20
54329;BME280;40710;51.120;13.136;2024-02-23T03:57:33;97098.59;;;12.47;45.25
54329;BME280;40710;51.120;13.136;2024-02-23T03:59:57;97112.91;;;12.62;45.07
54329;BME280;40710;51.120;13.136;2024-02-23T04:02:22;97118.66;;;11.55;45.89
54329;BME280;40710;51.120;13.136;2024-02-23T04:04:47;97125.78;;;11.82;45.24
54329;BME280;40710;51.120;13.136;2024-02-23T04:07:12;97147.41;;;11.76;45.73
54329;BME280;40710;51.120;13.136;2024-02-23T04:09:37;97151.28;;;11.82;45.94
54329;BME280;40710;51.120;13.136;2024-02-23T04:12:01;97139.19;;;12.26;45.08
54329;BME280;40710;51.120;13.136;2024-02-23T04:14:26;97160.13;;;11.81;45.47
54329;BME280;40710;51.120;13.136;2024-02-23T04:16:50;97143.91;;;12.23;45.08
54329;BME280;40710;51.120;13.136;2024-02-23T04:19:15;97181.72;;;11.27;47.09
54329;BME280;40710;51.120;13.136;2024-02-23T04:21:39;97171.69;;;12.07;45.34
54329;BME280;40710;51.120;13.136;2024-02-23T04:24:04;97165.19;;;11.64;45.94
54329;BME280;40710;51.120;13.136;2024-02-23T04:26:29;97178.38;;;11.35;46.86
54329;BME280;40710;51.120;13.136;2024-02-23T04:28:53;97177.19;;;11.67;46.41
54329;BME280;40710;51.120;13.136;2024-02-23T04:31:18;97180.63;;;11.77;46.74
54329;BME280;40710;51.120;13.136;2024-02-23T04:33:42;97198.97;;;11.49;47.07
54329;BME280;40710;51.120;13.136;2024-02-23T04:36:07;97188.81;;;11.74;46.90
54329;BME280;40710;51.120;13.136;2024-02-23T04:38:32;97182.59;;;11.75;46.25
54329;BME280;40710;51.120;13.136;2024-02-23T04:40:58;97200.38;;;11.14;47.90
54329;BME280;40710;51.120;13.136;2024-02-23T04:43:24;97189.31;;;11.97;46.51
54329;BME280;40710;51.120;13.136;2024-02-23T04:45:48;97203.84;;;11.15;47.81
54329;BME280;40710;51.120;13.136;2024-02-23T04:48:13;97212.03;;;11.88;47.27
54329;BME280;40710;51.120;13.136;2024-02-23T04:50:37;97215.28;;;11.53;47.86
54329;BME280;40710;51.120;13.136;2024-02-23T04:53:02;97215.09;;;12.03;47.16
54329;BME280;40710;51.120;13.136;2024-02-23T04:55:27;97216.69;;;11.57;47.28
54329;BME280;40710;51.120;13.136;2024-02-23T04:57:51;97229.41;;;11.32;48.40
54329;BME280;40710;51.120;13.136;2024-02-23T05:00:16;97232.91;;;11.33;48.51
54329;BME280;40710;51.120;13.136;2024-02-23T05:02:41;97249.63;;;11.12;48.97
54329;BME280;40710;51.120;13.136;2024-02-23T05:05:06;97281.97;;;10.93;49.69
54329;BME280;40710;51.120;13.136;2024-02-23T05:07:32;97281.19;;;11.03;49.54
54329;BME280;40710;51.120;13.136;2024-02-23T05:09:56;97272.88;;;11.27;49.17
54329;BME280;40710;51.120;13.136;2024-02-23T05:12:21;97281.84;;;10.95;49.81
54329;BME280;40710;51.120;13.136;2024-02-23T05:14:45;97266.13;;;11.24;49.64
54329;BME280;40710;51.120;13.136;2024-02-23T05:17:10;97254.19;;;11.69;48.39
54329;BME280;40710;51.120;13.136;2024-02-23T05:19:34;97261.25;;;11.20;49.60
54329;BME280;40710;51.120;13.136;2024-02-23T05:21:59;97259.31;;;11.51;48.69
54329;BME280;40710;51.120;13.136;2024-02-23T05:24:24;97251.41;;;10.92;49.19
54329;BME280;40710;51.120;13.136;2024-02-23T05:26:49;97250.59;;;10.51;50.29
54329;BME280;40710;51.120;13.136;2024-02-23T05:29:14;97256.25;;;10.97;49.08
54329;BME280;40710;51.120;13.136;2024-02-23T05:34:10;97271.72;;;10.40;49.83
54329;BME280;40710;51.120;13.136;2024-02-23T05:36:34;97277.88;;;10.60;49.44
54329;BME280;40710;51.120;13.136;2024-02-23T05:38:59;97281.44;;;10.28;50.23
54329;BME280;40710;51.120;13.136;2024-02-23T05:41:24;97274.50;;;10.98;49.02
54329;BME280;40710;51.120;13.136;2024-02-23T05:43:48;97289.47;;;10.98;51.07
54329;BME280;40710;51.120;13.136;2024-02-23T05:46:13;97298.28;;;10.87;49.94
54329;BME280;40710;51.120;13.136;2024-02-23T05:48:38;97297.25;;;10.69;50.08
54329;BME280;40710;51.120;13.136;2024-02-23T05:51:02;97314.53;;;11.22;48.79
54329;BME280;40710;51.120;13.136;2024-02-23T05:53:27;97320.22;;;11.27;48.81
54329;BME280;40710;51.120;13.136;2024-02-23T05:55:55;97322.72;;;11.19;49.15
54329;BME280;40710;51.120;13.136;2024-02-23T05:58:20;97313.31;;;11.45;48.41
54329;BME280;40710;51.120;13.136;2024-02-23T06:00:45;97339.13;;;11.01;49.13
54329;BME280;40710;51.120;13.136;2024-02-23T06:03:09;97333.50;;;11.15;48.48
54329;BME280;40710;51.120;13.136;2024-02-23T06:05:34;97334.47;;;11.34;48.14
54329;BME280;40710;51.120;13.136;2024-02-23T06:07:58;97335.75;;;12.27;46.39
54329;BME280;40710;51.120;13.136;2024-02-23T06:10:24;97338.81;;;11.94;46.60
54329;BME280;40710;51.120;13.136;2024-02-23T06:12:49;97340.72;;;11.33;47.98
54329;BME280;40710;51.120;13.136;2024-02-23T06:15:13;97364.94;;;10.86;48.38
54329;BME280;40710;51.120;13.136;2024-02-23T06:17:38;97381.53;;;10.56;49.02
54329;BME280;40710;51.120;13.136;2024-02-23T06:20:04;97383.47;;;10.33;50.25
54329;BME280;40710;51.120;13.136;2024-02-23T06:22:29;97373.81;;;10.95;48.26
54329;BME280;40710;51.120;13.136;2024-02-23T06:24:54;97371.28;;;11.34;48.11
54329;BME280;40710;51.120;13.136;2024-02-23T06:27:18;97377.75;;;10.49;49.03
54329;BME280;40710;51.120;13.136;2024-02-23T06:29:43;97366.84;;;11.25;48.14
54329;BME280;40710;51.120;13.136;2024-02-23T06:32:07;97371.72;;;11.29;48.00
54329;BME280;40710;51.120;13.136;2024-02-23T06:34:32;97392.22;;;10.95;48.67
54329;BME280;40710;51.120;13.136;2024-02-23T06:36:58;97396.41;;;11.07;48.26
54329;BME280;40710;51.120;13.136;2024-02-23T06:39:22;97391.06;;;10.57;48.84
54329;BME280;40710;51.120;13.136;2024-02-23T06:41:47;97409.94;;;11.53;47.81
54329;BME280;40710;51.120;13.136;2024-02-23T06:44:11;97422.91;;;10.64;48.64
54329;BME280;40710;51.120;13.136;2024-02-23T06:46:36;97410.78;;;10.72;48.30
54329;BME280;40710;51.120;13.136;2024-02-23T06:49:00;97393.84;;;11.27;47.41
54329;BME280;40710;51.120;13.136;2024-02-23T06:51:25;97411.59;;;10.94;48.25
54329;BME280;40710;51.120;13.136;2024-02-23T06:53:49;97427.41;;;10.52;49.00
54329;BME280;40710;51.120;13.136;2024-02-23T06:56:14;97427.66;;;10.49;49.06
54329;BME280;40710;51.120;13.136;2024-02-23T06:58:38;97401.69;;;10.76;48.82
54329;BME280;40710;51.120;13.136;2024-02-23T07:01:03;97411.88;;;11.01;48.25
54329;BME280;40710;51.120;13.136;2024-02-23T07:03:30;97418.63;;;11.34;47.91
54329;BME280;40710;51.120;13.136;2024-02-23T07:05:54;97410.66;;;11.05;48.03
54329;BME280;40710;51.120;13.136;2024-02-23T07:08:19;97417.81;;;10.93;48.25
54329;BME280;40710;51.120;13.136;2024-02-23T07:10:44;97414.75;;;12.08;46.57
54329;BME280;40710;51.120;13.136;2024-02-23T07:13:08;97425.09;;;11.80;46.89
54329;BME280;40710;51.120;13.136;2024-02-23T07:15:34;97426.75;;;11.71;47.22
54329;BME280;40710;51.120;13.136;2024-02-23T07:18:00;97454.41;;;11.56;47.81
54329;BME280;40710;51.120;13.136;2024-02-23T07:20:24;97460.38;;;11.58;47.93
54329;BME280;40710;51.120;13.136;2024-02-23T07:22:49;97463.25;;;11.45;48.43
54329;BME280;40710;51.120;13.136;2024-02-23T07:25:17;97473.84;;;11.24;48.45
54329;BME280;40710;51.120;13.136;2024-02-23T07:27:42;97470.16;;;11.46;48.60
54329;BME280;40710;51.120;13.136;2024-02-23T07:30:08;97459.91;;;11.94;47.78
54329;BME280;40710;51.120;13.136;2024-02-23T07:32:33;97473.09;;;11.53;48.70
54329;BME280;40710;51.120;13.136;2024-02-23T07:34:58;97493.84;;;11.15;49.09
54329;BME280;40710;51.120;13.136;2024-02-23T07:37:22;97480.59;;;11.27;49.19
54329;BME280;40710;51.120;13.136;2024-02-23T07:39:47;97484.34;;;11.65;48.44
54329;BME280;40710;51.120;13.136;2024-02-23T07:42:12;97482.84;;;11.72;48.25
54329;BME280;40710;51.120;13.136;2024-02-23T07:44:38;97500.59;;;11.08;49.67
54329;BME280;40710;51.120;13.136;2024-02-23T07:47:03;97507.31;;;11.22;49.29
54329;BME280;40710;51.120;13.136;2024-02-23T07:49:28;97516.66;;;11.36;48.45
54329;BME280;40710;51.120;13.136;2024-02-23T07:51:52;97519.59;;;10.91;49.26
54329;BME280;40710;51.120;13.136;2024-02-23T07:54:20;97522.75;;;11.37;49.64
54329;BME280;40710;51.120;13.136;2024-02-23T07:56:50;97520.63;;;11.30;49.68
54329;BME280;40710;51.120;13.136;2024-02-23T07:59:15;97514.75;;;11.48;48.92
54329;BME280;40710;51.120;13.136;2024-02-23T08:01:39;97519.13;;;11.07;49.33
54329;BME280;40710;51.120;13.136;2024-02-23T08:04:04;97510.03;;;11.51;48.50
54329;BME280;40710;51.120;13.136;2024-02-23T08:06:29;97513.34;;;11.13;50.00
54329;BME280;40710;51.120;13.136;2024-02-23T08:08:54;97515.28;;;11.42;49.09
54329;BME280;40710;51.120;13.136;2024-02-23T08:11:19;97518.91;;;11.20;49.18
54329;BME280;40710;51.120;13.136;2024-02-23T08:13:44;97527.38;;;11.54;48.36
54329;BME280;40710;51.120;13.136;2024-02-23T08:16:08;97531.06;;;10.69;48.80
54329;BME280;40710;51.120;13.136;2024-02-23T08:18:33;97537.53;;;10.86;49.32
54329;BME280;40710;51.120;13.136;2024-02-23T08:20:58;97539.47;;;11.35;48.08
54329;BME280;40710;51.120;13.136;2024-02-23T08:23:23;97535.28;;;11.54;48.38
54329;BME280;40710;51.120;13.136;2024-02-23T08:25:48;97524.50;;;12.07;47.14
54329;BME280;40710;51.120;13.136;2024-02-23T08:28:12;97537.72;;;11.15;48.02
54329;BME280;40710;51.120;13.136;2024-02-23T08:30:37;97528.47;;;11.92;47.23
54329;BME280;40710;51.120;13.136;2024-02-23T08:33:01;97523.59;;;11.16;47.80
54329;BME280;40710;51.120;13.136;2024-02-23T08:35:26;97517.28;;;10.76;49.38
54329;BME280;40710;51.120;13.136;2024-02-23T08:37:50;97517.09;;;11.82;47.46
54329;BME280;40710;51.120;13.136;2024-02-23T08:40:15;97518.81;;;10.58;49.32
54329;BME280;40710;51.120;13.136;2024-02-23T08:42:39;97517.41;;;10.96;49.24
54329;BME280;40710;51.120;13.136;2024-02-23T08:45:04;97513.53;;;11.52;48.21
54329;BME280;40710;51.120;13.136;2024-02-23T08:47:29;97522.66;;;11.17;48.97
54329;BME280;40710;51.120;13.136;2024-02-23T08:49:56;97517.84;;;11.22;49.47
54329;BME280;40710;51.120;13.136;2024-02-23T08:52:21;97501.06;;;12.82;45.96
54329;BME280;40710;51.120;13.136;2024-02-23T08:54:45;97531.38;;;11.89;47.44
54329;BME280;40710;51.120;13.136;2024-02-23T08:57:10;97521.34;;;13.29;44.78
54329;BME280;40710;51.120;13.136;2024-02-23T08:59:34;97533.06;;;13.17;44.07
54329;BME280;40710;51.120;13.136;2024-02-23T09:01:59;97558.91;;;12.25;46.68
54329;BME280;40710;51.120;13.136;2024-02-23T09:04:23;97564.19;;;12.45;45.18
54329;BME280;40710;51.120;13.136;2024-02-23T09:06:48;97577.53;;;11.31;48.60
54329;BME280;40710;51.120;13.136;2024-02-23T09:09:14;97580.31;;;11.70;47.09
54329;BME280;40710;51.120;13.136;2024-02-23T09:11:38;97578.88;;;11.57;47.62
54329;BME280;40710;51.120;13.136;2024-02-23T09:14:03;97597.84;;;10.55;48.93
54329;BME280;40710;51.120;13.136;2024-02-23T09:16:28;97583.00;;;12.30;46.72
54329;BME280;40710;51.120;13.136;2024-02-23T09:18:52;97575.22;;;11.38;47.43
54329;BME280;40710;51.120;13.136;2024-02-23T09:21:17;97576.53;;;12.35;45.95
54329;BME280;40710;51.120;13.136;2024-02-23T09:23:42;97582.22;;;11.59;46.40
54329;BME280;40710;51.120;13.136;2024-02-23T09:26:10;97578.06;;;11.56;46.57
54329;BME280;40710;51.120;13.136;2024-02-23T09:28:38;97576.50;;;11.23;46.43
54329;BME280;40710;51.120;13.136;2024-02-23T09:31:02;97564.06;;;11.56;44.53
54329;BME280;40710;51.120;13.136;2024-02-23T09:33:28;97565.44;;;12.60;42.31
54329;BME280;40710;51.120;13.136;2024-02-23T09:35:53;97564.84;;;11.77;43.36
54329;BME280;40710;51.120;13.136;2024-02-23T09:38:18;97532.75;;;13.67;40.94
54329;BME280;40710;51.120;13.136;2024-02-23T09:40:42;97529.09;;;13.78;40.55
54329;BME280;40710;51.120;13.136;2024-02-23T09:43:07;97531.28;;;13.55;39.96
54329;BME280;40710;51.120;13.136;2024-02-23T09:45:32;97530.97;;;14.13;40.12
54329;BME280;40710;51.120;13.136;2024-02-23T09:47:57;97533.53;;;13.77;40.52
54329;BME280;40710;51.120;13.136;2024-02-23T09:50:23;97535.78;;;14.00;40.22
54329;BME280;40710;51.120;13.136;2024-02-23T09:52:48;97539.47;;;14.07;39.79
54329;BME280;40710;51.120;13.136;2024-02-23T09:55:14;97544.59;;;13.91;40.54
54329;BME280;40710;51.120;13.136;2024-02-23T09:57:40;97573.19;;;12.91;43.26
54329;BME280;40710;51.120;13.136;2024-02-23T10:00:05;97569.59;;;12.73;43.17
54329;BME280;40710;51.120;13.136;2024-02-23T10:02:30;97574.84;;;13.02;42.42
54329;BME280;40710;51.120;13.136;2024-02-23T10:04:56;97584.72;;;12.61;43.41
54329;BME280;40710;51.120;13.136;2024-02-23T10:07:21;97565.06;;;14.70;40.29
54329;BME280;40710;51.120;13.136;2024-02-23T10:09:46;97573.16;;;13.11;42.73
54329;BME280;40710;51.120;13.136;2024-02-23T10:12:11;97584.16;;;12.77;43.28
54329;BME280;40710;51.120;13.136;2024-02-23T10:14:35;97582.22;;;12.79;42.84
54329;BME280;40710;51.120;13.136;2024-02-23T10:17:00;97573.00;;;13.41;41.51
54329;BME280;40710;51.120;13.136;2024-02-23T10:19:26;97570.94;;;13.73;40.52
54329;BME280;40710;51.120;13.136;2024-02-23T10:21:53;97548.47;;;16.50;34.77
54329;BME280;40710;51.120;13.136;2024-02-23T10:24:17;97532.09;;;19.76;30.73
54329;BME280;40710;51.120;13.136;2024-02-23T10:26:42;97533.88;;;20.20;29.55
54329;BME280;40710;51.120;13.136;2024-02-23T10:29:07;97577.28;;;16.29;35.63
54329;BME280;40710;51.120;13.136;2024-02-23T10:31:35;97599.91;;;15.28;36.96
54329;BME280;40710;51.120;13.136;2024-02-23T10:34:07;97586.91;;;15.95;35.52
54329;BME280;40710;51.120;13.136;2024-02-23T10:36:40;97597.13;;;14.85;37.03
54329;BME280;40710;51.120;13.136;2024-02-23T10:39:07;97575.22;;;17.95;33.45
54329;BME280;40710;51.120;13.136;2024-02-23T10:41:35;97588.28;;;16.07;35.06
54329;BME280;40710;51.120;13.136;2024-02-23T10:44:00;97589.97;;;15.48;35.76
54329;BME280;40710;51.120;13.136;2024-02-23T10:46:28;97601.38;;;14.50;37.53
54329;BME280;40710;51.120;13.136;2024-02-23T10:48:54;97606.06;;;15.81;35.71
54329;BME280;40710;51.120;13.136;2024-02-23T10:51:21;97602.13;;;15.32;37.52
54329;BME280;40710;51.120;13.136;2024-02-23T10:53:46;97609.72;;;14.00;39.13
54329;BME280;40710;51.120;13.136;2024-02-23T10:56:13;97603.47;;;15.89;36.42
54329;BME280;40710;51.120;13.136;2024-02-23T10:58:37;97635.91;;;13.36;39.11
54329;BME280;40710;51.120;13.136;2024-02-23T11:01:07;97662.38;;;12.57;39.20
54329;BME280;40710;51.120;13.136;2024-02-23T11:03:36;97661.00;;;12.72;39.76
54329;BME280;40710;51.120;13.136;2024-02-23T11:06:02;97671.69;;;12.61;39.92
54329;BME280;40710;51.120;13.136;2024-02-23T11:08:30;97674.47;;;12.59;40.38
54329;BME280;40710;51.120;13.136;2024-02-23T11:10:56;97659.34;;;13.49;39.26
54329;BME280;40710;51.120;13.136;2024-02-23T11:13:30;97660.50;;;13.37;40.23
54329;BME280;40710;51.120;13.136;2024-02-23T11:16:03;97663.31;;;12.46;41.37
54329;BME280;40710;51.120;13.136;2024-02-23T11:18:28;97674.63;;;12.17;41.68
54329;BME280;40710;51.120;13.136;2024-02-23T11:20:54;97659.00;;;12.35;42.11
54329;BME280;40710;51.120;13.136;2024-02-23T11:23:19;97658.19;;;12.04;41.38
54329;BME280;40710;51.120;13.136;2024-02-23T11:25:58;97659.44;;;12.00;42.11
54329;BME280;40710;51.120;13.136;2024-02-23T11:28:26;97658.84;;;12.27;42.22
54329;BME280;40710;51.120;13.136;2024-02-23T11:30:51;97655.69;;;12.33;41.23
54329;BME280;40710;51.120;13.136;2024-02-23T11:33:26;97658.50;;;12.71;40.85
54329;BME280;40710;51.120;13.136;2024-02-23T11:35:50;97666.97;;;12.14;42.18
54329;BME280;40710;51.120;13.136;2024-02-23T11:38:16;97644.22;;;13.12;40.62
54329;BME280;40710;51.120;13.136;2024-02-23T11:40:44;97640.25;;;12.19;40.94
54329;BME280;40710;51.120;13.136;2024-02-23T11:43:10;97651.41;;;12.01;41.57
54329;BME280;40710;51.120;13.136;2024-02-23T11:45:34;97659.63;;;11.56;42.45
54329;BME280;40710;51.120;13.136;2024-02-23T11:47:59;97674.63;;;11.44;42.28
54329;BME280;40710;51.120;13.136;2024-02-23T11:50:23;97667.75;;;11.53;42.27
54329;BME280;40710;51.120;13.136;2024-02-23T11:52:48;97679.63;;;11.47;41.58
54329;BME280;40710;51.120;13.136;2024-02-23T11:55:19;97671.13;;;12.57;41.39
54329;BME280;40710;51.120;13.136;2024-02-23T11:57:46;97660.72;;;11.84;41.57
54329;BME280;40710;51.120;13.136;2024-02-23T12:00:11;97653.69;;;11.64;41.20
54329;BME280;40710;51.120;13.136;2024-02-23T12:02:35;97655.16;;;11.78;41.49
54329;BME280;40710;51.120;13.136;2024-02-23T12:05:00;97652.38;;;12.60;40.98
54329;BME280;40710;51.120;13.136;2024-02-23T12:07:25;97642.44;;;13.03;40.70
54329;BME280;40710;51.120;13.136;2024-02-23T12:09:50;97654.13;;;12.30;40.67
54329;BME280;40710;51.120;13.136;2024-02-23T12:12:15;97659.41;;;12.30;41.71
54329;BME280;40710;51.120;13.136;2024-02-23T12:14:40;97648.94;;;12.79;40.29
54329;BME280;40710;51.120;13.136;2024-02-23T12:17:04;97658.47;;;12.01;41.34
54329;BME280;40710;51.120;13.136;2024-02-23T12:19:31;97664.00;;;12.38;41.39
54329;BME280;40710;51.120;13.136;2024-02-23T12:22:00;97673.06;;;12.55;40.92
54329;BME280;40710;51.120;13.136;2024-02-23T12:24:25;97671.00;;;12.59;41.39
54329;BME280;40710;51.120;13.136;2024-02-23T12:26:56;97668.50;;;12.67;40.63
54329;BME280;40710;51.120;13.136;2024-02-23T12:29:20;97666.81;;;12.56;41.13
54329;BME280;40710;51.120;13.136;2024-02-23T12:31:45;97668.16;;;12.41;41.27
54329;BME280;40710;51.120;13.136;2024-02-23T12:34:11;97667.38;;;12.50;40.61
54329;BME280;40710;51.120;13.136;2024-02-23T12:36:36;97659.06;;;12.14;41.43
54329;BME280;40710;51.120;13.136;2024-02-23T12:39:01;97667.75;;;11.53;42.08
54329;BME280;40710;51.120;13.136;2024-02-23T12:41:25;97650.91;;;12.67;41.10